Time;durP1;ratioP1;P1;durP2;ratioP2;P2;SDS_P1;SDS_P2;PMS_P1;PMS_P2;Temp;Humidity;BMP_temperature;BMP_pressure;BME280_temperature;BME280_humidity;BME280_pressure;Samples;Min_cycle;Max_cycle;Signal;HPM_P1;HPM_P2
2022/04/01 00:00:25;;;;;;;4.55;2.38;;;23.30;36.00;;;;;;6112266;28;81748;-65
2022/04/01 00:03:26;;;;;;;2.63;2.10;;;23.30;35.90;;;;;;6112061;28;80932;-65
2022/04/01 00:06:26;;;;;;;2.97;2.30;;;23.30;35.90;;;;;;6112384;28;80660;-66
2022/04/01 00:09:27;;;;;;;3.90;2.50;;;23.30;35.90;;;;;;6111826;28;80353;-66
2022/04/01 00:12:27;;;;;;;3.25;2.30;;;23.30;36.00;;;;;;6112389;28;80373;-66
2022/04/01 00:15:28;;;;;;;3.25;2.42;;;23.30;36.00;;;;;;6111967;28;80397;-67
2022/04/01 00:18:29;;;;;;;3.17;2.33;;;23.30;35.90;;;;;;6118010;28;80574;-66
2022/04/01 00:21:29;;;;;;;2.67;2.05;;;23.30;35.90;;;;;;6111599;28;81079;-66
2022/04/01 00:24:30;;;;;;;3.22;2.50;;;23.30;36.10;;;;;;6111901;28;81840;-67
2022/04/01 00:27:30;;;;;;;4.35;2.38;;;23.30;35.90;;;;;;6112705;28;80488;-67
2022/04/01 00:30:33;;;;;;;3.60;2.42;;;23.30;36.10;;;;;;6112392;28;80771;-67
2022/04/01 00:33:34;;;;;;;2.63;1.85;;;23.30;35.80;;;;;;6112046;28;80421;-67
2022/04/01 00:36:34;;;;;;;2.80;2.20;;;23.20;36.00;;;;;;6110267;28;80573;-66
2022/04/01 00:39:35;;;;;;;2.80;2.10;;;23.30;36.00;;;;;;6110051;28;83213;-66
2022/04/01 00:42:36;;;;;;;4.05;2.30;;;23.30;35.90;;;;;;6111847;28;81647;-66
2022/04/01 00:45:37;;;;;;;2.08;1.88;;;23.30;35.90;;;;;;6111648;28;80285;-66
2022/04/01 00:48:37;;;;;;;3.25;1.92;;;23.30;35.90;;;;;;6111707;28;80571;-66
2022/04/01 00:51:38;;;;;;;3.40;2.33;;;23.30;35.70;;;;;;6111382;28;80354;-66
2022/04/01 00:54:38;;;;;;;2.63;1.80;;;23.20;35.70;;;;;;6101728;28;80391;-67
2022/04/01 00:57:39;;;;;;;2.00;1.80;;;23.30;35.80;;;;;;6086867;28;80979;-66
2022/04/01 01:00:40;;;;;;;2.50;1.98;;;23.30;35.80;;;;;;6110339;28;80975;-65
2022/04/01 01:03:41;;;;;;;2.63;2.10;;;23.20;35.70;;;;;;6111218;28;80456;-65
2022/04/01 01:06:41;;;;;;;2.55;2.13;;;23.20;35.70;;;;;;6111118;28;81615;-68
2022/04/01 01:09:42;;;;;;;3.60;1.95;;;23.20;35.70;;;;;;6103229;28;81421;-67
2022/04/01 01:12:43;;;;;;;2.70;1.90;;;23.20;35.80;;;;;;6108401;28;80481;-66
2022/04/01 01:15:43;;;;;;;2.63;2.25;;;23.30;35.90;;;;;;6110111;28;80511;-67
2022/04/01 01:18:44;;;;;;;1.70;1.60;;;23.20;36.00;;;;;;6087428;28;80444;-66
2022/04/01 01:21:45;;;;;;;2.65;1.52;;;23.20;36.00;;;;;;6086887;28;81486;-66
2022/04/01 01:24:45;;;;;;;1.98;1.75;;;23.20;36.00;;;;;;6102178;28;82167;-66
2022/04/01 01:27:46;;;;;;;2.33;1.73;;;23.30;36.00;;;;;;6101989;28;83352;-66
2022/04/01 01:30:47;;;;;;;1.95;1.63;;;23.20;36.10;;;;;;6087429;28;80546;-66
2022/04/01 01:33:47;;;;;;;2.33;1.95;;;23.20;36.10;;;;;;6095009;28;80763;-66
2022/04/01 01:36:48;;;;;;;1.95;1.75;;;23.20;36.10;;;;;;6109075;28;83143;-65
2022/04/01 01:39:48;;;;;;;2.75;1.70;;;23.20;36.20;;;;;;6111177;28;81439;-66
2022/04/01 01:42:50;;;;;;;1.83;1.63;;;23.20;36.20;;;;;;6108658;28;82519;-66
2022/04/01 01:45:50;;;;;;;1.58;1.45;;;23.20;36.20;;;;;;6111110;28;80812;-66
2022/04/01 01:48:51;;;;;;;2.10;1.52;;;23.20;36.20;;;;;;6090425;28;81123;-67
2022/04/01 01:55:13;;;;;;;2.10;1.70;;;23.20;36.20;;;;;;6087991;28;87821;-66
2022/04/01 01:58:13;;;;;;;2.40;1.75;;;23.20;36.20;;;;;;6108800;28;83083;-66
2022/04/01 02:01:15;;;;;;;2.72;1.77;;;23.20;36.30;;;;;;6108996;28;83035;-66
2022/04/01 02:04:16;;;;;;;2.35;1.80;;;23.20;36.30;;;;;;6110484;28;80332;-66
2022/04/01 02:07:18;;;;;;;3.72;2.15;;;23.20;36.30;;;;;;6104210;28;80512;-67
2022/04/01 02:10:18;;;;;;;2.20;2.03;;;23.20;36.30;;;;;;6086734;28;81254;-66
2022/04/01 02:13:19;;;;;;;2.92;2.05;;;23.20;36.30;;;;;;6099307;28;80212;-67
2022/04/01 02:16:23;;;;;;;2.65;2.10;;;23.20;36.30;;;;;;6110655;28;80298;-68
2022/04/01 02:19:24;;;;;;;3.13;2.05;;;23.20;36.30;;;;;;6122904;28;81602;-66
2022/04/01 02:22:25;;;;;;;2.42;2.00;;;23.20;36.30;;;;;;6120021;28;83284;-67
2022/04/01 02:25:27;;;;;;;4.45;2.35;;;23.20;36.30;;;;;;6105428;28;81422;-66
2022/04/01 02:28:28;;;;;;;2.15;1.90;;;23.20;36.40;;;;;;6115733;28;81553;-66
2022/04/01 02:31:28;;;;;;;3.50;2.22;;;23.20;36.50;;;;;;6112665;28;82958;-67
2022/04/01 02:34:55;;;;;;;;;;;23.20;36.40;;;;;;6093920;28;81100;-66
2022/04/01 02:37:56;;;;;;;3.38;1.77;;;23.20;36.40;;;;;;6100189;28;81405;-66
2022/04/01 02:40:56;;;;;;;3.00;1.50;;;23.20;36.30;;;;;;6113090;28;80473;-66
2022/04/01 02:44:08;;;;;;;2.13;1.92;;;23.20;36.30;;;;;;6112264;28;83009;-66
2022/04/01 02:47:11;;;;;;;3.38;2.10;;;23.20;36.90;;;;;;6112596;28;82457;-66
2022/04/01 02:50:12;;;;;;;2.67;2.13;;;23.20;36.20;;;;;;6112637;28;83150;-66
2022/04/01 02:53:12;;;;;;;2.00;1.80;;;23.20;36.20;;;;;;6113439;28;80234;-65
2022/04/01 02:56:13;;;;;;;2.08;1.58;;;23.20;36.20;;;;;;6111978;28;82975;-65
2022/04/01 02:59:13;;;;;;;2.22;1.70;;;23.20;36.20;;;;;;6111852;28;82909;-66
2022/04/01 03:02:15;;;;;;;1.92;1.50;;;23.20;36.30;;;;;;6112065;28;82152;-67
2022/04/01 03:05:15;;;;;;;2.80;1.90;;;23.20;36.20;;;;;;6111501;28;83093;-68
2022/04/01 03:08:16;;;;;;;2.50;1.70;;;23.10;36.60;;;;;;6113561;28;80440;-67
2022/04/01 03:11:17;;;;;;;9.85;2.22;;;23.10;36.80;;;;;;6111996;28;82550;-68
2022/04/01 03:14:17;;;;;;;2.15;1.73;;;23.20;37.10;;;;;;6111944;28;83090;-68
2022/04/01 03:17:37;;;;;;;2.15;1.70;;;23.20;38.00;;;;;;6112118;28;80608;-68
2022/04/01 03:20:52;;;;;;;2.95;2.05;;;23.20;36.80;;;;;;6111786;28;81443;-68
2022/04/01 03:23:53;;;;;;;2.45;1.80;;;23.20;36.70;;;;;;6113252;28;80475;-68
2022/04/01 03:26:54;;;;;;;2.70;1.70;;;23.30;36.50;;;;;;6111873;28;82189;-68
2022/04/01 03:29:55;;;;;;;1.73;1.40;;;23.40;36.40;;;;;;6111893;28;82784;-69
2022/04/01 03:32:56;;;;;;;1.63;1.30;;;23.40;36.30;;;;;;6110452;28;82852;-68
2022/04/01 03:35:56;;;;;;;1.80;1.60;;;23.40;36.20;;;;;;6110850;28;81765;-70
2022/04/01 03:39:00;;;;;;;2.28;1.80;;;23.50;36.00;;;;;;6111754;28;82547;-68
2022/04/01 03:42:09;;;;;;;1.85;1.40;;;23.50;35.90;;;;;;6111084;28;83472;-66
2022/04/01 03:45:11;;;;;;;1.40;1.30;;;23.50;35.70;;;;;;6110746;28;83006;-66
2022/04/01 03:48:25;;;;;;;2.22;1.60;;;23.60;35.70;;;;;;6111618;28;82412;-65
2022/04/01 03:51:28;;;;;;;4.43;1.13;;;23.60;35.70;;;;;;6110996;28;83320;-65
2022/04/01 03:54:29;;;;;;;1.30;1.20;;;23.70;35.70;;;;;;6110605;28;83346;-63
2022/04/01 03:57:35;;;;;;;1.15;1.13;;;23.70;36.30;;;;;;6112166;28;80477;-65
2022/04/01 04:01:03;;;;;;;2.90;1.30;;;23.80;35.70;;;;;;6110415;28;80550;-64
2022/04/01 04:04:04;;;;;;;1.55;1.42;;;23.80;35.60;;;;;;6110563;28;83054;-66
2022/04/01 04:07:05;;;;;;;4.18;1.30;;;23.80;35.70;;;;;;6110672;28;83393;-65
2022/04/01 04:10:06;;;;;;;1.65;1.40;;;23.80;35.80;;;;;;6110422;28;83204;-64
2022/04/01 04:13:09;;;;;;;1.98;1.40;;;23.80;35.80;;;;;;6110676;28;81465;-63
2022/04/01 04:16:12;;;;;;;1.52;1.40;;;23.90;35.90;;;;;;6107010;28;87395;-75
2022/04/01 04:19:13;;;;;;;1.42;1.00;;;23.90;35.80;;;;;;6123216;28;82059;-64
2022/04/01 04:22:14;;;;;;;1.85;1.40;;;23.90;35.50;;;;;;6109909;28;82746;-70
2022/04/01 04:25:26;;;;;;;1.55;1.45;;;23.90;35.50;;;;;;6106204;28;83311;-62
2022/04/01 04:28:27;;;;;;;1.30;1.20;;;23.90;35.40;;;;;;6109862;28;82196;-63
2022/04/01 04:31:45;;;;;;;1.65;1.55;;;24.00;35.60;;;;;;6109446;28;81543;-63
2022/04/01 04:34:48;;;;;;;1.40;1.17;;;24.00;35.50;;;;;;6094310;28;83352;-64
2022/04/01 04:37:49;;;;;;;1.52;1.42;;;24.00;35.60;;;;;;6109439;28;82847;-64
2022/04/01 04:40:52;;;;;;;4.60;1.23;;;24.00;35.80;;;;;;6109940;28;82905;-65
2022/04/01 04:43:53;;;;;;;3.45;1.77;;;24.00;36.00;;;;;;6109748;28;82127;-70
2022/04/01 04:46:54;;;;;;;1.52;1.40;;;24.00;36.00;;;;;;6110771;28;81780;-67
2022/04/01 04:50:00;;;;;;;1.65;1.55;;;24.00;35.80;;;;;;6110786;28;82729;-71
2022/04/01 04:53:03;;;;;;;;;;;24.00;36.10;;;;;;6111011;28;82436;-65
2022/04/01 04:56:04;;;;;;;2.28;1.40;;;24.00;36.00;;;;;;6116473;28;82847;-67
2022/04/01 04:59:05;;;;;;;4.10;1.58;;;24.00;36.30;;;;;;6109992;28;80514;-66
2022/04/01 05:02:06;;;;;;;4.32;2.25;;;24.00;36.60;;;;;;6110327;28;82948;-66
2022/04/01 05:05:07;;;;;;;3.42;1.70;;;23.90;37.00;;;;;;6108022;28;83695;-69
2022/04/01 05:08:28;;;;;;;7.13;1.83;;;23.90;37.60;;;;;;6085906;28;80514;-66
2022/04/01 05:11:28;;;;;;;7.00;2.08;;;23.90;37.10;;;;;;6092155;28;80504;-66
2022/04/01 05:14:29;;;;;;;5.25;1.50;;;23.90;37.80;;;;;;6085528;28;83771;-66
2022/04/01 05:17:30;;;;;;;4.82;1.83;;;23.80;38.30;;;;;;6103307;28;80659;-65
2022/04/01 05:20:30;;;;;;;2.75;1.92;;;23.80;37.70;;;;;;6109854;28;83291;-65
2022/04/01 05:23:31;;;;;;;2.90;1.80;;;23.80;37.80;;;;;;6109305;28;82696;-66
2022/04/01 05:26:38;;;;;;;2.92;1.83;;;23.80;37.80;;;;;;6109366;28;83425;-66
2022/04/01 05:29:44;;;;;;;3.20;1.83;;;23.80;37.90;;;;;;6109235;28;80273;-66
2022/04/01 05:32:47;;;;;;;7.15;1.48;;;23.80;37.90;;;;;;6108095;28;81705;-66
2022/04/01 05:35:51;;;;;;;17.55;1.98;;;23.70;38.10;;;;;;6085594;28;82818;-67
2022/04/01 05:38:54;;;;;;;4.68;1.80;;;23.70;38.10;;;;;;6087433;28;82835;-66
2022/04/01 05:41:55;;;;;;;5.47;1.75;;;23.70;38.30;;;;;;6092127;28;81512;-66
2022/04/01 05:44:56;;;;;;;7.30;1.63;;;23.70;38.50;;;;;;6108542;28;82919;-66
2022/04/01 05:47:56;;;;;;;3.63;1.35;;;23.70;38.20;;;;;;6093990;28;83198;-67
2022/04/01 05:50:57;;;;;;;1.98;1.25;;;23.70;38.00;;;;;;6084764;28;82788;-67
2022/04/01 05:54:01;;;;;;;3.65;1.50;;;23.70;38.10;;;;;;6102268;28;81836;-67
2022/04/01 05:57:02;;;;;;;5.80;1.48;;;23.70;37.90;;;;;;6119690;28;82519;-67
2022/04/01 06:00:05;;;;;;;5.20;1.25;;;23.70;38.30;;;;;;6089215;28;82966;-66
2022/04/01 06:03:13;;;;;;;2.08;1.42;;;23.70;38.50;;;;;;6089450;28;80519;-67
2022/04/01 06:06:14;;;;;;;2.95;1.67;;;23.70;38.30;;;;;;6105100;28;83248;-67
2022/04/01 06:09:15;;;;;;;9.77;1.45;;;23.60;38.20;;;;;;6095441;28;82958;-66
2022/04/01 06:12:34;;;;;;;7.93;1.45;;;23.60;38.30;;;;;;6113446;28;80080;-67
2022/04/01 06:15:38;;;;;;;1.73;1.23;;;23.70;38.10;;;;;;6114407;28;80222;-68
2022/04/01 06:19:05;;;;;;;1.40;1.30;;;23.70;38.00;;;;;;6112699;28;80292;-68
2022/04/01 06:22:05;;;;;;;2.78;1.50;;;23.60;38.10;;;;;;6108269;28;83344;-67
2022/04/01 06:25:23;;;;;;;6.15;1.75;;;23.60;38.40;;;;;;6089030;28;87635;-67
2022/04/01 06:28:26;;;;;;;6.20;1.52;;;23.60;38.20;;;;;;6092777;28;83669;-68
2022/04/01 06:31:30;;;;;;;4.53;1.40;;;23.60;38.40;;;;;;6109861;28;82315;-67
2022/04/01 06:34:31;;;;;;;3.50;1.48;;;23.60;38.60;;;;;;6092183;28;81554;-69
2022/04/01 06:38:03;;;;;;;3.42;1.23;;;23.60;38.50;;;;;;6094545;28;80991;-67
2022/04/01 06:41:04;;;;;;;5.20;1.73;;;23.60;38.20;;;;;;6089339;28;80205;-67
2022/04/01 06:44:13;;;;;;;8.75;1.60;;;23.60;38.40;;;;;;6088188;28;82555;-66
2022/04/01 06:47:13;;;;;;;4.55;1.52;;;23.60;38.40;;;;;;6089760;28;80695;-66
2022/04/01 06:50:16;;;;;;;4.38;2.45;;;23.60;38.40;;;;;;6108158;28;82225;-66
2022/04/01 06:53:19;;;;;;;5.70;2.05;;;23.60;38.40;;;;;;6110835;28;80615;-64
2022/04/01 06:56:39;;;;;;;5.68;1.80;;;23.60;38.30;;;;;;6112880;28;80213;-66
2022/04/01 06:59:39;;;;;;;4.25;1.95;;;23.60;38.30;;;;;;6110583;28;83835;-66
2022/04/01 07:02:40;;;;;;;4.78;1.58;;;23.60;38.40;;;;;;6112519;28;80722;-66
2022/04/01 07:05:41;;;;;;;4.07;1.77;;;23.60;38.30;;;;;;6113635;28;80398;-67
2022/04/01 07:08:42;;;;;;;4.45;1.98;;;23.60;38.40;;;;;;6112718;28;81097;-67
2022/04/01 07:11:42;;;;;;;2.17;1.90;;;23.60;38.30;;;;;;6112803;28;80684;-67
2022/04/01 07:14:43;;;;;;;5.45;2.85;;;23.60;38.30;;;;;;6119498;28;80376;-67
2022/04/01 07:17:44;;;;;;;3.45;2.17;;;23.60;38.20;;;;;;6137232;28;80387;-67
2022/04/01 07:20:44;;;;;;;4.72;2.42;;;23.60;38.30;;;;;;6113901;28;81474;-67
2022/04/01 07:23:45;;;;;;;5.28;2.20;;;23.60;38.30;;;;;;6108761;28;81979;-66
2022/04/01 07:26:45;;;;;;;6.45;2.60;;;23.60;38.40;;;;;;6111477;28;81475;-67
2022/04/01 07:29:46;;;;;;;8.90;2.63;;;23.60;38.40;;;;;;6112709;28;80797;-66
2022/04/01 07:32:50;;;;;;;3.45;1.90;;;23.60;38.90;;;;;;6111895;28;81506;-66
2022/04/01 07:35:51;;;;;;;7.13;2.13;;;23.60;38.70;;;;;;6111669;28;80601;-66
2022/04/01 07:38:52;;;;;;;6.32;2.03;;;23.60;38.50;;;;;;6111771;28;80363;-66
2022/04/01 07:41:52;;;;;;;4.03;2.05;;;23.60;38.50;;;;;;6109750;28;81447;-64
2022/04/01 07:44:53;;;;;;;5.35;1.90;;;23.60;38.60;;;;;;6110828;28;81582;-66
2022/04/01 07:47:54;;;;;;;4.72;1.85;;;23.60;38.60;;;;;;6112863;28;80367;-67
2022/04/01 07:50:55;;;;;;;4.63;2.00;;;23.60;38.40;;;;;;6112179;28;82068;-67
2022/04/01 07:53:56;;;;;;;3.90;1.95;;;23.60;38.50;;;;;;6112399;28;81261;-68
2022/04/01 07:56:56;;;;;;;386.73;145.45;;;23.60;38.30;;;;;;6112603;28;80506;-67
2022/04/01 07:59:57;;;;;;;467.58;182.25;;;23.60;38.40;;;;;;6106673;28;85795;-66
2022/04/01 08:02:57;;;;;;;399.23;148.32;;;23.60;38.40;;;;;;6105997;28;85485;-66
2022/04/01 08:05:59;;;;;;;394.00;148.30;;;23.60;38.40;;;;;;6106119;28;85632;-67
2022/04/01 08:08:59;;;;;;;264.60;99.20;;;23.60;38.30;;;;;;6105483;28;85624;-69
2022/04/01 08:12:00;;;;;;;227.02;82.80;;;23.50;38.40;;;;;;6108805;28;85097;-69
2022/04/01 08:15:01;;;;;;;222.85;84.68;;;23.60;38.30;;;;;;6109064;28;83101;-66
2022/04/01 08:18:02;;;;;;;190.18;75.13;;;23.50;38.10;;;;;;6108084;28;83097;-67
2022/04/01 08:21:03;;;;;;;169.18;68.18;;;23.50;38.10;;;;;;6107948;28;83875;-67
2022/04/01 08:24:04;;;;;;;177.98;69.85;;;23.50;38.20;;;;;;6099548;28;83176;-67
2022/04/01 08:27:04;;;;;;;169.02;70.47;;;23.50;38.10;;;;;;6107052;28;83525;-67
2022/04/01 08:30:05;;;;;;;233.00;102.22;;;23.50;38.20;;;;;;6108300;28;83150;-67
2022/04/01 08:33:05;;;;;;;312.35;132.32;;;23.60;38.30;;;;;;6088922;28;85562;-67
2022/04/01 08:36:06;;;;;;;298.08;131.43;;;23.60;38.20;;;;;;6092527;28;85655;-67
2022/04/01 08:39:06;;;;;;;309.48;133.20;;;23.60;38.10;;;;;;6081834;28;85376;-66
2022/04/01 08:42:07;;;;;;;282.38;120.53;;;23.60;38.10;;;;;;6102010;28;85807;-67
2022/04/01 08:45:07;;;;;;;239.48;105.60;;;23.60;38.10;;;;;;6105529;28;85476;-67
2022/04/01 08:48:10;;;;;;;210.45;92.43;;;23.60;37.90;;;;;;6105399;28;85884;-67
2022/04/01 08:51:10;;;;;;;187.32;85.88;;;23.60;38.00;;;;;;6107339;28;85228;-67
2022/04/01 08:54:11;;;;;;;153.25;66.45;;;23.50;38.00;;;;;;6100924;28;83191;-67
2022/04/01 08:57:11;;;;;;;145.20;64.93;;;23.50;38.20;;;;;;6089406;28;83293;-66
2022/04/01 09:00:12;;;;;;;136.43;59.85;;;23.40;38.90;;;;;;6094270;28;82921;-67
2022/04/01 09:03:12;;;;;;;134.25;55.50;;;23.40;39.40;;;;;;6096001;28;84436;-66
2022/04/01 09:06:13;;;;;;;116.90;51.60;;;23.30;39.80;;;;;;6103771;28;83092;-66
2022/04/01 09:09:13;;;;;;;109.68;46.55;;;23.20;39.90;;;;;;6105995;28;83006;-66
2022/04/01 09:12:14;;;;;;;99.20;44.47;;;23.20;40.00;;;;;;6105679;28;83431;-65
2022/04/01 09:15:14;;;;;;;99.30;44.15;;;23.20;40.50;;;;;;6105104;28;83158;-65
2022/04/01 09:18:15;;;;;;;86.72;38.40;;;23.20;41.00;;;;;;6111650;28;83043;-66
2022/04/01 09:21:15;;;;;;;84.05;36.90;;;23.20;41.50;;;;;;6111458;28;83441;-64
2022/04/01 09:24:17;;;;;;;79.00;34.45;;;23.10;41.20;;;;;;6084167;28;83190;-64
2022/04/01 09:27:18;;;;;;;69.80;28.85;;;23.10;41.50;;;;;;6083853;28;83350;-70
2022/04/01 09:30:18;;;;;;;65.15;29.02;;;23.20;41.50;;;;;;6105181;28;83465;-71
2022/04/01 09:33:19;;;;;;;57.63;26.98;;;23.20;41.40;;;;;;6084843;28;83470;-72
2022/04/01 09:36:19;;;;;;;53.45;24.10;;;23.20;41.90;;;;;;6083442;28;83557;-66
2022/04/01 09:39:20;;;;;;;52.90;22.42;;;23.30;41.90;;;;;;6087348;28;83076;-69
2022/04/01 09:42:20;;;;;;;45.50;20.65;;;23.40;42.10;;;;;;6095933;28;84127;-70
2022/04/01 09:45:21;;;;;;;46.72;20.42;;;23.40;42.30;;;;;;6107993;28;84203;-68
2022/04/01 09:48:21;;;;;;;48.20;20.77;;;23.50;42.20;;;;;;6104541;28;83010;-68
2022/04/01 09:51:22;;;;;;;38.55;18.02;;;23.60;42.30;;;;;;6105861;28;84205;-69
2022/04/01 09:54:22;;;;;;;36.63;17.27;;;23.60;42.10;;;;;;6106276;28;83432;-67
2022/04/01 09:57:23;;;;;;;37.22;16.17;;;23.70;41.80;;;;;;6106084;28;84326;-67
2022/04/01 10:00:24;;;;;;;32.03;15.07;;;23.70;41.50;;;;;;6106966;28;83192;-66
2022/04/01 10:03:25;;;;;;;35.00;16.48;;;23.70;41.50;;;;;;6094983;28;83423;-69
2022/04/01 10:06:25;;;;;;;36.00;15.13;;;23.70;41.30;;;;;;6105025;28;89663;-67
2022/04/01 10:09:26;;;;;;;31.38;13.85;;;23.70;41.50;;;;;;6098899;28;83203;-66
2022/04/01 10:12:26;;;;;;;33.17;14.07;;;23.70;41.70;;;;;;6090253;28;83745;-66
2022/04/01 10:15:28;;;;;;;29.83;13.05;;;23.70;42.40;;;;;;6105871;28;83416;-66
2022/04/01 10:18:29;;;;;;;28.20;11.73;;;23.80;42.30;;;;;;6112543;28;82926;-66
2022/04/01 10:21:29;;;;;;;25.95;11.15;;;23.90;42.40;;;;;;6109658;28;83527;-66
2022/04/01 10:24:30;;;;;;;22.40;10.27;;;23.90;42.20;;;;;;6099264;28;82953;-67
2022/04/01 10:27:30;;;;;;;20.15;9.45;;;23.90;42.10;;;;;;6086565;28;83465;-66
2022/04/01 10:30:35;;;;;;;17.52;9.65;;;23.90;42.30;;;;;;6101117;28;83026;-66
2022/04/01 10:33:36;;;;;;;17.83;8.43;;;23.90;42.20;;;;;;6107930;28;80615;-66
2022/04/01 10:36:42;;;;;;;19.05;9.60;;;23.90;42.20;;;;;;6109470;28;80348;-66
2022/04/01 10:39:43;;;;;;;19.83;9.07;;;23.80;42.10;;;;;;6109163;28;80446;-65
2022/04/01 10:42:43;;;;;;;14.18;7.78;;;23.80;42.30;;;;;;6109180;28;80526;-67
2022/04/01 10:45:44;;;;;;;17.83;8.25;;;23.80;42.10;;;;;;6113060;28;80264;-67
2022/04/01 10:52:03;;;;;;;13.73;7.10;;;23.70;42.30;;;;;;6113004;28;80423;-66
2022/04/01 10:55:05;;;;;;;15.35;6.95;;;23.70;42.20;;;;;;6113111;28;80568;-67
2022/04/01 10:58:06;;;;;;;13.02;6.15;;;23.60;41.90;;;;;;6112253;28;81263;-67
2022/04/01 11:01:06;;;;;;;11.80;6.13;;;23.60;42.00;;;;;;6111055;28;80676;-67
2022/04/01 11:04:07;;;;;;;13.38;5.70;;;23.50;41.90;;;;;;6111575;28;81731;-67
2022/04/01 11:07:14;;;;;;;10.32;5.95;;;23.60;41.80;;;;;;6111443;28;81805;-66
2022/04/01 11:10:14;;;;;;;11.05;5.35;;;23.50;42.40;;;;;;6111422;28;86167;-66
2022/04/01 11:13:15;;;;;;;9.85;5.88;;;23.50;42.40;;;;;;6108920;28;80479;-66
2022/04/01 11:16:15;;;;;;;13.10;5.13;;;23.50;42.80;;;;;;6113013;28;81857;-67
2022/04/01 11:19:16;;;;;;;7.95;4.88;;;23.40;43.40;;;;;;6112823;28;80422;-67
2022/04/01 11:22:17;;;;;;;9.70;5.03;;;23.40;43.50;;;;;;6113091;28;80501;-67
2022/04/01 11:25:17;;;;;;;8.68;4.97;;;23.40;43.40;;;;;;6102863;28;80537;-67
2022/04/01 11:28:18;;;;;;;11.40;5.35;;;23.40;44.10;;;;;;6091499;28;80358;-67
2022/04/01 11:31:18;;;;;;;10.82;5.47;;;23.40;44.90;;;;;;6112463;28;80701;-67
2022/04/01 11:34:19;;;;;;;10.65;5.15;;;23.40;44.70;;;;;;6112196;28;80483;-67
2022/04/01 11:37:19;;;;;;;10.25;5.70;;;23.40;46.90;;;;;;6112614;28;80753;-67
2022/04/01 11:40:22;;;;;;;10.52;5.20;;;23.40;47.10;;;;;;6112233;28;80292;-67
2022/04/01 11:43:23;;;;;;;13.25;5.80;;;23.40;47.90;;;;;;6111911;28;81412;-66
2022/04/01 11:46:23;;;;;;;7.88;4.68;;;23.50;49.50;;;;;;6112069;28;80492;-66
2022/04/01 11:49:24;;;;;;;8.02;4.72;;;23.50;49.50;;;;;;6112231;28;80134;-66
2022/04/01 11:52:24;;;;;;;7.40;4.40;;;23.40;49.30;;;;;;6112562;28;80613;-67
2022/04/01 11:55:25;;;;;;;7.05;3.90;;;23.40;49.20;;;;;;6111132;28;81505;-67
2022/04/01 11:58:25;;;;;;;8.48;5.05;;;23.40;49.00;;;;;;6111871;28;80521;-67
2022/04/01 12:01:26;;;;;;;9.00;3.88;;;23.40;49.20;;;;;;6111470;28;81582;-66
2022/04/01 12:04:27;;;;;;;9.13;4.15;;;23.40;49.30;;;;;;6109696;28;80529;-67
2022/04/01 12:10:46;;;;;;;5.50;3.10;;;23.50;48.50;;;;;;6115547;28;81451;-66
2022/04/01 12:13:48;;;;;;;9.13;3.80;;;23.40;47.90;;;;;;6110667;28;80562;-68
2022/04/01 12:16:48;;;;;;;6.47;3.53;;;23.50;47.30;;;;;;6109351;28;81758;-66
2022/04/01 12:19:49;;;;;;;5.28;3.13;;;23.50;47.00;;;;;;6110529;28;80237;-66
2022/04/01 12:22:51;;;;;;;6.10;3.67;;;23.40;46.30;;;;;;6108661;28;80448;-65
2022/04/01 12:25:52;;;;;;;6.38;2.90;;;23.40;46.00;;;;;;6105044;28;80225;-66
2022/04/01 12:28:53;;;;;;;6.35;2.95;;;23.30;45.80;;;;;;6100572;28;81989;-67
2022/04/01 12:31:53;;;;;;;5.45;3.15;;;23.30;45.50;;;;;;6108021;28;81500;-67
2022/04/01 12:34:54;;;;;;;5.10;2.97;;;23.30;45.60;;;;;;6110613;28;80404;-67
2022/04/01 12:37:54;;;;;;;3.22;2.47;;;23.30;45.30;;;;;;6110932;28;80239;-67
2022/04/01 12:40:55;;;;;;;4.78;2.95;;;23.20;45.10;;;;;;6110882;28;80528;-67
2022/04/01 12:43:56;;;;;;;5.63;2.80;;;23.20;44.80;;;;;;6111312;28;87144;-67
2022/04/01 12:47:03;;;;;;;6.80;3.95;;;23.30;44.80;;;;;;6110940;28;80342;-69
2022/04/01 12:50:04;;;;;;;8.73;4.45;;;23.30;44.70;;;;;;6109893;28;81576;-68
2022/04/01 12:53:04;;;;;;;4.57;3.20;;;23.20;44.60;;;;;;6111075;28;80498;-68
2022/04/01 12:56:04;;;;;;;6.85;3.78;;;23.20;44.40;;;;;;6110365;28;80352;-69
2022/04/01 12:59:05;;;;;;;5.55;3.35;;;23.20;44.40;;;;;;6110698;28;80848;-69
2022/04/01 13:02:06;;;;;;;5.70;3.50;;;23.20;44.40;;;;;;6108509;28;87545;-68
2022/04/01 13:05:07;;;;;;;10.23;4.22;;;23.20;44.30;;;;;;6107195;28;81503;-68
2022/04/01 13:08:08;;;;;;;10.25;3.58;;;23.20;44.30;;;;;;6105410;28;81559;-67
2022/04/01 13:11:09;;;;;;;8.77;3.00;;;23.20;44.80;;;;;;6107476;28;80346;-69
2022/04/01 13:14:09;;;;;;;9.48;3.50;;;23.20;44.30;;;;;;6108292;28;80545;-68
2022/04/01 13:17:10;;;;;;;7.75;3.08;;;23.20;44.30;;;;;;6094391;28;81911;-69
2022/04/01 13:20:11;;;;;;;6.28;3.38;;;23.20;44.60;;;;;;6090359;28;80877;-70
2022/04/01 13:23:12;;;;;;;8.63;3.30;;;23.20;44.40;;;;;;6088455;28;80694;-68
2022/04/01 13:26:13;;;;;;;6.07;2.88;;;23.20;44.70;;;;;;6097658;28;80388;-67
2022/04/01 13:29:13;;;;;;;10.70;2.78;;;23.20;44.60;;;;;;6094091;28;81180;-69
2022/04/01 13:32:14;;;;;;;6.13;2.33;;;23.20;44.40;;;;;;6090649;28;80169;-68
2022/04/01 13:35:15;;;;;;;6.28;2.90;;;23.10;44.50;;;;;;6093801;28;80229;-70
2022/04/01 13:38:15;;;;;;;6.00;3.10;;;23.20;44.70;;;;;;6096526;28;80400;-71
2022/04/01 13:41:16;;;;;;;6.30;2.72;;;23.20;44.50;;;;;;6098295;28;80348;-67
2022/04/01 13:44:16;;;;;;;5.95;2.63;;;23.20;44.30;;;;;;6097385;28;80850;-68
2022/04/01 13:47:17;;;;;;;4.40;2.20;;;23.20;44.30;;;;;;6101876;28;82373;-67
2022/04/01 13:50:17;;;;;;;5.28;2.20;;;23.20;44.30;;;;;;6096007;28;80434;-67
2022/04/01 13:53:18;;;;;;;4.60;2.70;;;23.20;44.20;;;;;;6100095;28;81417;-67
2022/04/01 13:56:18;;;;;;;5.70;2.58;;;23.20;44.10;;;;;;6102431;28;80774;-66
2022/04/01 13:59:19;;;;;;;4.05;2.50;;;23.20;44.00;;;;;;6088024;28;80842;-68
2022/04/01 14:02:21;;;;;;;4.22;2.20;;;23.20;44.00;;;;;;6101679;28;83391;-67
2022/04/01 14:05:21;;;;;;;3.63;2.35;;;23.10;44.10;;;;;;6092993;28;80643;-67
2022/04/01 14:08:23;;;;;;;3.20;2.28;;;23.10;44.20;;;;;;6096050;28;80298;-67
2022/04/01 14:11:23;;;;;;;3.75;2.22;;;23.10;44.20;;;;;;6092177;28;80875;-66
2022/04/01 14:14:24;;;;;;;4.13;2.05;;;23.10;44.20;;;;;;6096100;28;80020;-68
2022/04/01 14:17:25;;;;;;;3.45;2.67;;;23.10;44.40;;;;;;6105587;28;81657;-67
2022/04/01 14:20:28;;;;;;;3.15;1.70;;;23.10;44.40;;;;;;6096503;28;80305;-68
2022/04/01 14:23:31;;;;;;;4.32;2.00;;;23.20;44.60;;;;;;6106168;28;80374;-67
2022/04/01 14:26:33;;;;;;;103.20;43.40;;;23.30;44.50;;;;;;6113051;28;80975;-66
2022/04/01 14:32:53;;;;;;;131.35;58.55;;;23.50;44.40;;;;;;6090450;28;83306;-69
2022/04/01 14:35:54;;;;;;;114.88;49.45;;;23.50;44.20;;;;;;6086327;28;84173;-67
2022/04/01 14:38:55;;;;;;;98.03;43.55;;;23.60;44.30;;;;;;6093737;28;83235;-67
2022/04/01 14:41:55;;;;;;;126.88;55.80;;;23.60;44.30;;;;;;6099807;28;83555;-69
2022/04/01 14:44:56;;;;;;;172.25;78.03;;;23.60;44.10;;;;;;6090919;28;83919;-68
2022/04/01 14:47:57;;;;;;;211.82;98.18;;;23.60;44.10;;;;;;6094797;28;84191;-69
2022/04/01 14:50:57;;;;;;;226.95;98.80;;;23.70;43.90;;;;;;6087649;28;83396;-65
2022/04/01 14:53:58;;;;;;;184.30;88.63;;;23.70;44.10;;;;;;6102210;28;82849;-68
2022/04/01 14:56:58;;;;;;;172.23;78.32;;;23.70;43.80;;;;;;6110763;28;83448;-69
2022/04/01 14:59:59;;;;;;;145.60;68.15;;;23.80;43.80;;;;;;6110046;28;82768;-67
2022/04/01 15:03:01;;;;;;;132.85;58.88;;;23.80;43.70;;;;;;6109464;28;83248;-67
2022/04/01 15:06:01;;;;;;;125.28;55.65;;;23.80;43.80;;;;;;6110974;28;82889;-68
2022/04/01 15:09:02;;;;;;;119.20;50.25;;;23.70;43.30;;;;;;6102897;28;83652;-68
2022/04/01 15:12:03;;;;;;;107.20;48.30;;;23.70;43.60;;;;;;6107700;28;83220;-67
2022/04/01 15:15:03;;;;;;;92.45;43.25;;;23.70;43.80;;;;;;6106062;28;83450;-68
2022/04/01 15:18:03;;;;;;;88.28;41.05;;;23.70;44.00;;;;;;6106336;28;83438;-68
2022/04/01 15:21:04;;;;;;;92.28;39.03;;;23.70;43.90;;;;;;6095791;28;83422;-66
2022/04/01 15:24:04;;;;;;;92.07;38.88;;;23.70;43.90;;;;;;6108232;28;83030;-66
2022/04/01 15:27:05;;;;;;;75.53;32.97;;;23.70;44.00;;;;;;6104791;28;83182;-65
2022/04/01 15:30:06;;;;;;;70.10;31.27;;;23.70;44.10;;;;;;6101819;28;84549;-65
2022/04/01 15:33:08;;;;;;;74.50;33.10;;;23.60;43.90;;;;;;6102036;28;83490;-66
2022/04/01 15:36:09;;;;;;;64.85;32.40;;;23.60;43.80;;;;;;6097430;28;84237;-66
2022/04/01 15:39:09;;;;;;;69.43;30.40;;;23.60;43.80;;;;;;6098057;28;83344;-66
2022/04/01 15:42:10;;;;;;;71.00;31.48;;;23.60;44.40;;;;;;6097962;28;84101;-66
2022/04/01 15:45:10;;;;;;;67.25;29.00;;;23.60;44.20;;;;;;6108583;28;83946;-66
2022/04/01 15:48:11;;;;;;;53.60;25.50;;;23.70;44.10;;;;;;6087766;28;83495;-66
2022/04/01 15:51:11;;;;;;;49.83;23.38;;;23.70;43.20;;;;;;6092243;28;83005;-65